createdAt,value
2024-02-02T00:01:46.532Z,43.30
2024-02-02T00:04:24.704Z,61.85
2024-02-02T00:07:03.142Z,48.08
2024-02-02T00:09:40.476Z,53.17
2024-02-02T00:12:21.822Z,43.63
2024-02-02T00:15:03.282Z,43.05
2024-02-02T00:17:41.231Z,34.92
2024-02-02T00:20:24.909Z,30.27
2024-02-02T00:23:00.230Z,28.88
2024-02-02T00:25:41.084Z,32.53
2024-02-02T00:28:21.888Z,31.17
2024-02-02T00:30:54.964Z,36.58
2024-02-02T00:33:32.734Z,39.47
2024-02-02T00:36:12.222Z,36.13
2024-02-02T00:38:52.756Z,32.13
2024-02-02T00:41:29.699Z,28.67
2024-02-02T00:44:08.377Z,31.80
2024-02-02T00:46:43.155Z,42.85
2024-02-02T00:49:24.696Z,58.83
2024-02-02T00:51:58.251Z,58.80
2024-02-02T00:57:13.748Z,31.38
2024-02-02T00:59:51.429Z,37.00
2024-02-02T01:02:29.189Z,34.55
2024-02-02T01:05:09.709Z,29.65
2024-02-02T01:07:42.575Z,27.70
2024-02-02T01:10:20.510Z,26.73
2024-02-02T01:13:04.215Z,32.55
2024-02-02T01:15:41.838Z,37.53
2024-02-02T01:18:19.218Z,43.90
2024-02-02T01:20:57.717Z,41.78
2024-02-02T01:23:53.231Z,42.28
2024-02-02T01:26:31.488Z,41.80
2024-02-02T01:29:11.883Z,39.03
2024-02-02T01:31:53.146Z,41.13
2024-02-02T01:34:31.595Z,48.63
2024-02-02T01:37:12.123Z,56.25
2024-02-02T01:39:51.782Z,68.38
2024-02-02T01:42:24.296Z,65.38
2024-02-02T01:45:02.701Z,75.07
2024-02-02T01:47:43.814Z,53.67
2024-02-02T01:50:22.970Z,55.08
2024-02-02T01:53:00.881Z,56.08
2024-02-02T01:55:41.805Z,59.22
2024-02-02T01:58:22.614Z,58.13
2024-02-02T02:01:00.168Z,44.40
2024-02-02T02:03:41.291Z,41.35
2024-02-02T02:06:13.638Z,43.75
2024-02-02T02:09:04.337Z,44.42
2024-02-02T02:11:42.509Z,39.00
2024-02-02T02:14:18.074Z,49.40
2024-02-02T02:16:59.215Z,66.53
2024-02-02T02:19:37.287Z,72.55
2024-02-02T02:22:14.883Z,66.75
2024-02-02T02:24:49.543Z,66.32
2024-02-02T02:27:20.529Z,58.45
2024-02-02T02:29:56.385Z,52.80
2024-02-02T02:32:33.909Z,46.60
2024-02-02T02:35:21.594Z,38.05
2024-02-02T02:37:58.244Z,30.65
2024-02-02T02:40:35.114Z,27.10
2024-02-02T02:43:09.607Z,26.60
2024-02-02T02:45:48.626Z,22.58
2024-02-02T02:48:27.848Z,20.98
2024-02-02T02:51:00.261Z,19.67
2024-02-02T02:53:41.072Z,20.65
2024-02-02T02:56:14.343Z,20.27
2024-02-02T02:58:48.196Z,18.45
2024-02-02T03:01:25.525Z,17.25
2024-02-02T03:04:03.219Z,17.73
2024-02-02T03:06:37.820Z,16.95
2024-02-02T03:09:15.942Z,16.13
2024-02-02T03:11:53.663Z,15.73
2024-02-02T03:14:31.862Z,15.65
2024-02-02T03:17:10.090Z,15.48
2024-02-02T03:19:47.941Z,14.25
2024-02-02T03:22:29.150Z,15.18
2024-02-02T03:25:10.182Z,12.98
2024-02-02T03:27:45.556Z,14.98
2024-02-02T03:30:28.453Z,14.52
2024-02-02T03:33:04.437Z,14.65
2024-02-02T03:35:44.796Z,13.98
2024-02-02T03:38:20.664Z,15.07
2024-02-02T03:40:57.166Z,14.05
2024-02-02T03:43:32.706Z,14.82
2024-02-02T03:46:14.148Z,13.00
2024-02-02T03:48:46.451Z,14.00
2024-02-02T03:51:23.527Z,13.93
2024-02-02T03:53:58.407Z,12.95
2024-02-02T03:56:33.204Z,13.40
2024-02-02T03:59:14.072Z,13.00
2024-02-02T04:01:55.504Z,13.52
2024-02-02T04:04:35.527Z,13.57
2024-02-02T04:07:10.311Z,12.85
2024-02-02T04:09:48.176Z,11.15
2024-02-02T04:12:26.360Z,11.43
2024-02-02T04:15:01.791Z,12.23
2024-02-02T04:17:33.599Z,12.80
2024-02-02T04:20:16.812Z,12.27
2024-02-02T04:22:54.793Z,12.00
2024-02-02T04:25:32.491Z,10.45
2024-02-02T04:28:10.112Z,10.23
2024-02-02T04:30:42.799Z,10.02
2024-02-02T04:33:15.473Z,10.45
2024-02-02T04:35:53.706Z,11.18
2024-02-02T04:38:32.176Z,12.15
2024-02-02T04:41:07.293Z,10.30
2024-02-02T04:43:48.560Z,11.43
2024-02-02T04:46:26.700Z,9.98
2024-02-02T04:49:07.370Z,10.50
2024-02-02T04:51:42.380Z,9.57
2024-02-02T04:54:23.158Z,9.65
2024-02-02T04:57:00.786Z,8.82
2024-02-02T04:59:39.023Z,8.88
2024-02-02T05:02:22.894Z,18.30
2024-02-02T05:05:00.234Z,21.10
2024-02-02T05:07:32.538Z,14.70
2024-02-02T05:10:10.414Z,10.50
2024-02-02T05:12:44.304Z,12.15
2024-02-02T05:15:24.223Z,9.60
2024-02-02T05:18:05.247Z,9.25
2024-02-02T05:20:48.227Z,8.70
2024-02-02T05:23:28.927Z,7.83
2024-02-02T05:26:06.238Z,9.20
2024-02-02T05:28:41.484Z,10.40
2024-02-02T05:31:22.556Z,10.90
2024-02-02T05:34:01.146Z,9.60
2024-02-02T05:36:41.878Z,10.98
2024-02-02T05:39:22.853Z,10.95
2024-02-02T05:42:00.508Z,10.15
2024-02-02T05:44:43.586Z,11.02
2024-02-02T05:47:22.287Z,10.80
2024-02-02T05:50:00.298Z,9.13
2024-02-02T05:52:38.798Z,9.40
2024-02-02T05:55:16.072Z,9.35
2024-02-02T05:57:54.418Z,8.82
2024-02-02T06:00:32.204Z,10.07
2024-02-02T06:03:16.311Z,9.13
2024-02-02T06:05:56.399Z,9.20
2024-02-02T06:08:31.800Z,10.75
2024-02-02T06:11:09.790Z,9.48
2024-02-02T06:13:46.268Z,11.35
2024-02-02T06:16:28.072Z,9.93
2024-02-02T06:19:06.030Z,9.75
2024-02-02T06:21:38.853Z,12.20
2024-02-02T06:24:11.966Z,10.10
2024-02-02T06:26:47.217Z,9.95
2024-02-02T06:32:02.131Z,8.10
2024-02-02T06:34:39.768Z,8.90
2024-02-02T06:37:17.106Z,8.43
2024-02-02T06:39:57.248Z,9.23
2024-02-02T06:42:33.237Z,8.90
2024-02-02T06:45:09.317Z,8.45
2024-02-02T06:47:50.237Z,8.38
2024-02-02T06:50:25.426Z,8.13
2024-02-02T06:53:09.565Z,8.40
2024-02-02T06:55:50.558Z,8.32
2024-02-02T06:58:41.963Z,8.70
2024-02-02T07:01:19.507Z,10.70
2024-02-02T07:04:02.481Z,10.57
2024-02-02T07:06:39.412Z,9.57
2024-02-02T07:09:30.415Z,9.90
2024-02-02T07:12:12.332Z,7.80
2024-02-02T07:15:05.446Z,9.25
2024-02-02T07:17:45.917Z,9.93
2024-02-02T07:20:42.638Z,8.32
2024-02-02T07:23:29.602Z,8.27
2024-02-02T07:26:08.167Z,9.45
2024-02-02T07:28:39.839Z,8.50
2024-02-02T07:31:14.844Z,7.03
2024-02-02T07:33:55.520Z,9.48
2024-02-02T07:36:37.413Z,10.43
2024-02-02T07:39:30.622Z,8.88
2024-02-02T07:42:05.860Z,8.75
2024-02-02T07:44:47.244Z,8.18
2024-02-02T07:47:25.081Z,7.85
2024-02-02T07:50:00.121Z,7.60
2024-02-02T07:52:33.276Z,7.68
2024-02-02T07:55:11.486Z,9.23
2024-02-02T07:57:49.972Z,8.93
2024-02-02T08:00:24.591Z,7.93
2024-02-02T08:03:05.072Z,8.95
2024-02-02T08:05:44.568Z,8.02
2024-02-02T08:08:19.050Z,8.73
2024-02-02T08:10:56.110Z,7.57
2024-02-02T08:13:32.103Z,8.18
2024-02-02T08:16:11.698Z,7.80
2024-02-02T08:18:49.330Z,8.35
2024-02-02T08:21:27.277Z,6.85
2024-02-02T08:24:07.247Z,8.90
2024-02-02T08:26:46.714Z,7.05
2024-02-02T08:29:21.151Z,8.25
2024-02-02T08:31:58.612Z,7.28
2024-02-02T08:34:34.829Z,8.07
2024-02-02T08:37:15.693Z,6.88
2024-02-02T08:39:50.945Z,7.40
2024-02-02T08:42:27.402Z,7.65
2024-02-02T08:45:02.423Z,8.13
2024-02-02T08:47:40.426Z,8.60
2024-02-02T08:50:16.415Z,9.10
2024-02-02T08:52:46.439Z,8.05
2024-02-02T08:55:41.165Z,7.53
2024-02-02T08:58:22.276Z,8.23
2024-02-02T09:01:00.575Z,7.50
2024-02-02T09:03:46.715Z,7.85
2024-02-02T09:06:31.692Z,8.25
2024-02-02T09:09:11.192Z,9.85
2024-02-02T09:11:51.693Z,8.88
2024-02-02T09:14:27.858Z,7.93
2024-02-02T09:17:01.482Z,8.15
2024-02-02T09:19:38.754Z,8.15
2024-02-02T09:22:18.706Z,7.68
2024-02-02T09:24:58.200Z,6.93
2024-02-02T09:27:41.596Z,8.32
2024-02-02T09:30:34.088Z,8.38
2024-02-02T09:33:29.532Z,7.90
2024-02-02T09:36:08.207Z,7.05
2024-02-02T09:39:04.460Z,7.40
2024-02-02T09:42:06.099Z,7.28
2024-02-02T09:45:13.504Z,6.13
2024-02-02T09:48:17.653Z,7.03
2024-02-02T09:51:10.633Z,7.35
2024-02-02T09:53:54.260Z,6.95
2024-02-02T09:56:58.702Z,8.20
2024-02-02T10:02:43.880Z,7.20
2024-02-02T10:05:38.267Z,7.18
2024-02-02T10:08:51.711Z,7.45
2024-02-02T10:11:52.001Z,7.60
2024-02-02T10:14:50.318Z,7.47
2024-02-02T10:17:36.157Z,7.18
2024-02-02T10:20:33.059Z,7.20
2024-02-02T10:23:25.590Z,6.88
2024-02-02T10:26:31.146Z,8.38
2024-02-02T10:29:28.683Z,7.10
2024-02-02T10:32:19.559Z,6.85
2024-02-02T10:35:00.463Z,6.88
2024-02-02T10:37:33.362Z,6.38
2024-02-02T10:40:22.524Z,7.57
2024-02-02T10:43:08.166Z,7.35
2024-02-02T10:46:05.831Z,7.10
2024-02-02T10:49:02.017Z,6.13
2024-02-02T10:51:43.449Z,6.65
2024-02-02T10:54:34.648Z,7.53
2024-02-02T10:57:08.356Z,6.43
2024-02-02T11:00:14.605Z,8.43
2024-02-02T11:03:15.461Z,6.93
2024-02-02T11:05:57.183Z,7.22
2024-02-02T11:08:37.851Z,7.60
2024-02-02T11:11:28.701Z,7.88
2024-02-02T11:14:14.656Z,6.55
2024-02-02T11:17:15.985Z,6.00
2024-02-02T11:20:10.303Z,6.47
2024-02-02T11:23:01.374Z,7.18
2024-02-02T11:25:44.695Z,7.28
2024-02-02T11:28:35.858Z,7.80
2024-02-02T11:31:28.782Z,6.75
2024-02-02T11:34:17.517Z,7.32
2024-02-02T11:37:03.551Z,6.10
2024-02-02T11:40:09.632Z,6.65
2024-02-02T11:42:53.761Z,6.50
2024-02-02T11:48:05.434Z,5.60
2024-02-02T11:50:55.685Z,6.85
2024-02-02T11:53:52.875Z,6.70
2024-02-02T11:56:36.548Z,6.05
2024-02-02T11:59:15.124Z,6.97
2024-02-02T12:02:13.107Z,6.15
2024-02-02T12:04:52.179Z,6.88
2024-02-02T12:07:41.598Z,6.30
2024-02-02T12:10:22.615Z,6.35
2024-02-02T12:13:26.593Z,6.40
2024-02-02T12:16:01.095Z,5.97
2024-02-02T12:18:39.208Z,5.93
2024-02-02T12:21:16.896Z,6.07
2024-02-02T12:23:55.975Z,7.70
2024-02-02T12:26:33.956Z,6.45
2024-02-02T12:29:09.275Z,6.53
2024-02-02T12:31:44.330Z,6.97
2024-02-02T12:34:25.426Z,6.32
2024-02-02T12:37:03.442Z,6.47
2024-02-02T12:39:42.255Z,6.03
2024-02-02T12:42:19.521Z,6.57
2024-02-02T12:44:52.261Z,5.80
2024-02-02T12:47:30.741Z,6.03
2024-02-02T12:50:01.688Z,6.10
2024-02-02T12:52:39.284Z,5.57
2024-02-02T12:55:17.568Z,6.57
2024-02-02T12:57:53.384Z,6.35
2024-02-02T13:00:27.287Z,7.30
2024-02-02T13:03:03.321Z,5.63
2024-02-02T13:05:41.839Z,12.77
2024-02-02T13:08:28.964Z,9.50
2024-02-02T13:11:09.347Z,7.45
2024-02-02T13:13:43.608Z,8.48
2024-02-02T13:16:36.074Z,7.65
2024-02-02T13:19:31.941Z,6.13
2024-02-02T13:22:27.798Z,7.93
2024-02-02T13:25:03.129Z,6.22
2024-02-02T13:27:40.641Z,8.57
2024-02-02T13:30:28.140Z,8.35
2024-02-02T13:33:09.026Z,10.90
2024-02-02T13:35:48.094Z,9.73
2024-02-02T13:38:24.139Z,7.90
2024-02-02T13:41:02.840Z,8.85
2024-02-02T13:43:36.684Z,15.93
2024-02-02T13:46:12.924Z,9.55
2024-02-02T13:48:48.165Z,12.65
2024-02-02T13:51:29.554Z,11.63
2024-02-02T13:54:09.698Z,10.57
2024-02-02T13:56:42.878Z,9.25
2024-02-02T13:59:22.406Z,14.45
2024-02-02T14:02:06.891Z,8.75
2024-02-02T14:04:44.100Z,8.75
2024-02-02T14:07:55.248Z,7.53
2024-02-02T14:10:57.639Z,6.65
2024-02-02T14:13:33.137Z,7.97
2024-02-02T14:16:06.685Z,13.10
2024-02-02T14:18:44.051Z,8.80
2024-02-02T14:21:29.589Z,9.07
2024-02-02T14:24:18.227Z,9.98
2024-02-02T14:27:03.154Z,9.48
2024-02-02T14:29:50.118Z,8.43
2024-02-02T14:32:22.626Z,9.48
2024-02-02T14:35:00.777Z,9.18
2024-02-02T14:37:33.322Z,6.63
2024-02-02T14:40:08.117Z,7.55
2024-02-02T14:42:44.009Z,10.25
2024-02-02T14:45:20.686Z,7.80
2024-02-02T14:50:26.441Z,7.93
2024-02-02T14:53:01.454Z,6.95
2024-02-02T14:55:34.363Z,8.25
2024-02-02T14:58:12.484Z,8.32
2024-02-02T15:00:45.929Z,9.85
2024-02-02T15:03:26.951Z,8.73
2024-02-02T15:06:02.530Z,6.63
2024-02-02T15:08:37.214Z,8.18
2024-02-02T15:11:08.952Z,8.80
2024-02-02T15:13:50.225Z,13.50
2024-02-02T15:16:25.168Z,15.10
2024-02-02T15:18:59.855Z,16.27
2024-02-02T15:21:35.046Z,9.05
2024-02-02T15:24:14.131Z,11.63
2024-02-02T15:26:47.228Z,10.55
2024-02-02T15:29:22.290Z,7.75
2024-02-02T15:31:58.279Z,8.32
2024-02-02T15:34:36.372Z,9.63
2024-02-02T15:37:14.233Z,6.68
2024-02-02T15:40:02.079Z,10.63
2024-02-02T15:42:37.662Z,8.65
2024-02-02T15:45:16.125Z,10.32
2024-02-02T15:47:54.473Z,9.15
2024-02-02T15:50:36.949Z,10.70
2024-02-02T15:53:15.595Z,11.88
2024-02-02T15:55:55.334Z,12.82
2024-02-02T15:58:33.403Z,10.65
2024-02-02T16:01:13.512Z,10.43
2024-02-02T16:03:51.686Z,12.27
2024-02-02T16:06:32.432Z,14.40
2024-02-02T16:09:10.665Z,10.40
2024-02-02T16:11:43.023Z,10.60
2024-02-02T16:14:16.890Z,11.43
2024-02-02T16:16:58.548Z,8.18
2024-02-02T16:19:42.670Z,7.78
2024-02-02T16:22:23.327Z,10.98
2024-02-02T16:25:04.081Z,14.90
2024-02-02T16:27:41.726Z,15.48
2024-02-02T16:30:17.542Z,14.18
2024-02-02T16:32:52.472Z,13.63
2024-02-02T16:35:30.350Z,12.68
2024-02-02T16:38:06.096Z,12.43
2024-02-02T16:40:35.601Z,13.70
2024-02-02T16:43:15.772Z,14.85
2024-02-02T16:45:57.037Z,14.80
2024-02-02T16:48:35.228Z,14.68
2024-02-02T16:51:23.593Z,16.30
2024-02-02T16:54:01.922Z,14.52
2024-02-02T16:56:37.191Z,12.15
2024-02-02T16:59:09.564Z,13.25
2024-02-02T17:01:47.936Z,12.75
2024-02-02T17:04:23.586Z,15.73
2024-02-02T17:06:57.132Z,14.85
2024-02-02T17:12:21.172Z,14.60
2024-02-02T17:15:01.886Z,13.73
2024-02-02T17:17:34.086Z,14.57
2024-02-02T17:20:19.180Z,16.00
2024-02-02T17:22:55.627Z,14.02
2024-02-02T17:25:33.756Z,12.77
2024-02-02T17:28:14.076Z,14.50
2024-02-02T17:30:52.673Z,13.27
2024-02-02T17:33:26.285Z,14.23
2024-02-02T17:36:08.892Z,14.77
2024-02-02T17:38:45.279Z,15.38
2024-02-02T17:41:28.293Z,14.63
2024-02-02T17:44:06.817Z,15.07
2024-02-02T17:46:40.326Z,15.57
2024-02-02T17:51:50.929Z,16.58
2024-02-02T17:54:29.348Z,20.40
2024-02-02T17:57:07.949Z,21.90
2024-02-02T17:59:41.100Z,22.73
2024-02-02T18:02:14.221Z,26.10
2024-02-02T18:04:52.719Z,26.25
2024-02-02T18:07:30.382Z,24.08
2024-02-02T18:10:12.262Z,24.27
2024-02-02T18:12:54.338Z,25.50
2024-02-02T18:15:32.372Z,27.88
2024-02-02T18:18:08.194Z,24.83
2024-02-02T18:20:46.279Z,24.83
2024-02-02T18:23:27.965Z,23.65
2024-02-02T18:26:05.325Z,21.60
2024-02-02T18:28:40.562Z,21.60
2024-02-02T18:31:18.463Z,22.67
2024-02-02T18:33:56.782Z,23.83
2024-02-02T18:36:33.003Z,21.15
2024-02-02T18:39:11.530Z,21.27
2024-02-02T18:41:46.813Z,17.40
2024-02-02T18:44:21.723Z,15.68
2024-02-02T18:47:00.060Z,16.73
2024-02-02T18:49:32.721Z,16.17
2024-02-02T18:52:08.631Z,13.63
2024-02-02T18:54:47.975Z,15.48
2024-02-02T18:57:23.636Z,14.00
2024-02-02T19:00:01.929Z,13.80
2024-02-02T19:02:42.115Z,14.55
2024-02-02T19:05:23.121Z,13.50
2024-02-02T19:08:00.626Z,13.25
2024-02-02T19:10:35.862Z,12.70
2024-02-02T19:13:16.336Z,13.05
2024-02-02T19:15:55.585Z,14.20
2024-02-02T19:18:41.213Z,12.65
2024-02-02T19:21:36.032Z,13.85
2024-02-02T19:24:19.934Z,12.88
2024-02-02T19:26:55.127Z,14.07
2024-02-02T19:29:29.872Z,11.60
2024-02-02T19:32:08.352Z,12.45
2024-02-02T19:34:45.788Z,14.40
2024-02-02T19:37:24.196Z,14.80
2024-02-02T19:40:08.065Z,12.55
2024-02-02T19:42:45.958Z,12.85
2024-02-02T19:45:23.958Z,12.88
2024-02-02T19:47:58.390Z,13.07
2024-02-02T19:50:41.608Z,11.88
2024-02-02T19:53:12.205Z,10.00
2024-02-02T19:55:52.538Z,12.18
2024-02-02T19:58:27.536Z,11.38
2024-02-02T20:01:06.375Z,10.90
2024-02-02T20:03:44.387Z,12.63
2024-02-02T20:06:21.648Z,12.90
2024-02-02T20:08:55.268Z,11.68
2024-02-02T20:14:08.285Z,10.30
2024-02-02T20:16:51.321Z,10.48
2024-02-02T20:19:27.893Z,9.95
2024-02-02T20:22:08.601Z,11.45
2024-02-02T20:24:55.730Z,11.45
2024-02-02T20:27:36.488Z,11.10
2024-02-02T20:30:15.793Z,9.95
2024-02-02T20:32:50.204Z,10.35
2024-02-02T20:35:29.267Z,9.80
2024-02-02T20:38:02.615Z,9.20
2024-02-02T20:40:37.630Z,9.60
2024-02-02T20:43:20.743Z,10.25
2024-02-02T20:45:59.348Z,10.65
2024-02-02T20:48:36.272Z,9.23
2024-02-02T20:51:16.236Z,11.50
2024-02-02T20:53:55.509Z,9.30
2024-02-02T20:56:36.122Z,10.77
2024-02-02T20:59:06.227Z,10.40
2024-02-02T21:01:44.520Z,9.50
2024-02-02T21:04:22.670Z,9.02
2024-02-02T21:07:00.802Z,10.73
2024-02-02T21:09:37.068Z,10.75
2024-02-02T21:12:13.561Z,10.15
2024-02-02T21:14:46.649Z,10.02
2024-02-02T21:17:24.555Z,9.93
2024-02-02T21:20:05.896Z,10.10
2024-02-02T21:22:47.010Z,10.93
2024-02-02T21:25:21.619Z,11.13
2024-02-02T21:27:58.516Z,10.90
2024-02-02T21:30:33.086Z,10.90
2024-02-02T21:33:11.369Z,10.55
2024-02-02T21:35:46.584Z,12.77
2024-02-02T21:38:21.384Z,11.38
2024-02-02T21:40:59.878Z,11.55
2024-02-02T21:43:35.122Z,10.23
2024-02-02T21:46:12.328Z,12.38
2024-02-02T21:48:53.411Z,11.27
2024-02-02T21:51:31.379Z,11.70
2024-02-02T21:54:09.415Z,10.93
2024-02-02T21:56:53.108Z,12.30
2024-02-02T21:59:31.172Z,11.18
2024-02-02T22:02:08.760Z,11.05
2024-02-02T22:04:46.969Z,11.75
2024-02-02T22:07:36.924Z,12.18
2024-02-02T22:10:13.076Z,12.23
2024-02-02T22:12:53.428Z,11.80
2024-02-02T22:15:30.710Z,10.98
2024-02-02T22:18:09.041Z,12.02
2024-02-02T22:20:50.226Z,10.65
2024-02-02T22:23:22.328Z,10.88
2024-02-02T22:26:05.332Z,11.65
2024-02-02T22:28:41.662Z,10.43
2024-02-02T22:31:28.704Z,11.55
2024-02-02T22:34:06.816Z,12.00
2024-02-02T22:36:41.775Z,11.35
2024-02-02T22:39:17.844Z,11.93
2024-02-02T22:41:55.282Z,12.50
2024-02-02T22:44:27.520Z,12.35
2024-02-02T22:47:08.156Z,11.25
2024-02-02T22:49:42.247Z,10.48
2024-02-02T22:52:16.740Z,11.57
2024-02-02T22:54:54.303Z,11.80
2024-02-02T22:57:28.807Z,10.20
2024-02-02T23:00:10.961Z,12.00
2024-02-02T23:02:48.624Z,11.60
2024-02-02T23:05:29.882Z,12.63
2024-02-02T23:08:05.309Z,12.07
2024-02-02T23:10:37.652Z,11.45
2024-02-02T23:13:12.916Z,11.75
2024-02-02T23:15:54.296Z,11.63
2024-02-02T23:18:35.809Z,11.35
2024-02-02T23:21:13.378Z,11.95
2024-02-02T23:23:48.982Z,12.25
2024-02-02T23:26:26.631Z,11.30
2024-02-02T23:28:58.863Z,11.93
2024-02-02T23:31:39.561Z,12.40
2024-02-02T23:34:18.212Z,13.25
2024-02-02T23:36:57.003Z,13.68
2024-02-02T23:39:34.636Z,14.65
2024-02-02T23:42:09.844Z,14.55
2024-02-02T23:44:45.151Z,14.35
2024-02-02T23:47:17.904Z,13.32
2024-02-02T23:49:58.329Z,13.32
2024-02-02T23:52:38.848Z,15.07
2024-02-02T23:55:12.021Z,14.48
2024-02-02T23:57:52.265Z,13.73
